Avondale, Washington
Current Conditions -  °F | °C
As of 6:53 PM on Sunday 23 Nov 2014 (Local Time) from KBFI Reporting Station
Scattered Clouds Scattered Clouds  
Wind Chill: 48°   Ceiling: Unl
Heat Index: 48°   Visibility: 10mi
Dew Point: 39°   Wind: 3mph
Humidity: 71%   Direction: 110°ESE
Pressure: 30.26"   Gusts: NA
Location:  47.6833°N, 122.123°W
Report Text: KBFI 240253Z 11003KT 10SM SCT200 09/04 A3026 RMK AO2 SLP246 T00890039 53025
Loading
Personal Weather Stations






























Interactive Weather Map New forecast layout! Learn more

10-Day Weather Forecast

Advertisements
Track Severe Weather on mobile